LEXJ/SDR METAR and TAF weather

Enter ICAO airport designator
Station Type Date Time Source
LEXJ METAR 2021/01/22 07:00 UTC NOAA

LEXJ 220700Z 29029G41KT 9999 -RA BKN056 11/07 Q0999


Station Type Date Time Source
LEXJ Decoded METAR 2021/01/22 07:00 UTC NOAA

Santander / Parayas, Spain (LEXJ) 43-26N 003-49W 9M
Jan 22, 2021 - 02:00 AM EST / 2021.01.22 0700 UTC
Wind: from the WNW (290 degrees) at 33 MPH (29 KT) gusting to 47 MPH (41 KT):0
Visibility: greater than 7 mile(s):0
Sky conditions: mostly cloudy
Weather: light rain
Temperature: 51 F (11 C)
Dew Point: 44 F (7 C)
Relative Humidity: 76%
Pressure (altimeter): 29.50 in. Hg (0999 hPa)
ob: LEXJ 220700Z 29029G41KT 9999 -RA BKN056 11/07 Q0999
cycle: 7

Station Type Date Time Source
LEXJ TAF 2021/01/22 03:51 UTC NOAA

TAF
AMD TAF
AMD LEXJ 220347Z 2203/2303 21009KT 9999 SCT050 TX14/2215Z TN08/2207Z
TEMPO 2203/2205 20015G25KT
BECMG 2203/2205 27010KT
TEMPO 2203/2220 28017G33KT PROB30
TEMPO 2204/2208 30025G43KT
TEMPO 2203/2215 3000 RA SHRA BKN010 SCT020TCU PROB30
TEMPO 2215/2221 SHRA SCT020TCU PROB30
TEMPO 2215/2221 TS SCT020CB
BECMG 2218/2221 20010KT PROB30
TEMPO 2218/2303 20015G25KT

Example: see airport list